| time (UTC) | temp F | wind direction | speed MPH | gust MPH | rain 1hr in | rain 24hr in | rain mn in | humidity % | barometer mb |
| 20260509131146 | 46 | 334 | 0.0 | 1.0 | 0.00 | 0.03 | 0.03 | 99 | 1008.0 |
| 20260509130641 | 46 | 104 | 1.0 | 2.0 | 0.07 | 0.03 | 0.03 | 99 | 1007.9 |
| 20260509130138 | 46 | 204 | 0.0 | 1.0 | 0.07 | 0.03 | 0.03 | 99 | 1007.7 |
| 20260509125635 | 46 | 194 | 1.0 | 2.0 | 0.00 | 0.02 | 0.02 | 99 | 1007.9 |
| 20260509125132 | 46 | 216 | 0.0 | 0.0 | 0.05 | 0.02 | 0.02 | 99 | 1007.7 |
| 20260509124628 | 46 | 229 | 0.0 | 0.0 | 0.05 | 0.02 | 0.02 | 99 | 1007.8 |
| 20260509124125 | 45 | 206 | 0.0 | 0.0 | 0.00 | 0.01 | 0.01 | 99 | 1007.8 |
| 20260509123623 | 45 | 216 | 0.0 | 0.0 | 0.00 | 0.01 | 0.01 | 99 | 1007.8 |
| 20260509123120 | 45 | 118 | 0.0 | 0.0 | 0.00 | 0.01 | 0.01 | 99 | 1007.7 |
| 20260509122615 | 45 | 179 | 0.0 | 0.0 | 0.00 | 0.01 | 0.01 | 99 | 1007.9 |
| 20260509122113 | 45 | 166 | 0.0 | 0.0 | 0.00 | 0.01 | 0.01 | 99 | 1008.0 |
| 20260509121609 | 45 | 186 | 0.0 | 1.0 | 0.00 | 0.01 | 0.01 | 99 | 1007.8 |
| 20260509121107 | 45 | 203 | 0.0 | 0.0 | 0.00 | 0.01 | 0.01 | 99 | 1008.0 |
| 20260509120605 | 45 | 216 | 0.0 | 0.0 | 0.00 | 0.01 | 0.01 | 99 | 1007.9 |
| 20260509115600 | 45 | 53 | 0.0 | 1.0 | 0.00 | 0.01 | 0.01 | 99 | 1008.0 |
| 20260509115058 | 45 | 168 | 2.0 | 3.0 | 0.07 | 0.01 | 0.01 | 99 | 1007.9 |
| 20260509114556 | 45 | 216 | 0.0 | 1.0 | 0.07 | 0.01 | 0.01 | 99 | 1008.1 |
| 20260509114054 | 45 | 220 | 0.0 | 0.0 | 0.00 | 0.00 | 0.00 | 99 | 1008.0 |
| 20260509113552 | 45 | 213 | 0.0 | 0.0 | 0.00 | 0.00 | 0.00 | 99 | 1008.2 |
| 20260509113050 | 44 | 189 | 0.0 | 1.0 | 0.00 | 0.00 | 0.00 | 99 | 1008.0 |
| 20260509112546 | 44 | 203 | 0.0 | 1.0 | 0.00 | 0.00 | 0.00 | 99 | 1008.3 |
| 20260509112043 | 44 | 200 | 0.0 | 0.0 | 0.00 | 0.00 | 0.00 | 99 | 1008.2 |
| 20260509111540 | 44 | 181 | 0.0 | 0.0 | 0.00 | 0.00 | 0.00 | 99 | 1008.3 |
| 20260509111037 | 44 | 202 | 0.0 | 0.0 | 0.00 | 0.00 | 0.00 | 99 | 1008.0 |
| 20260509110533 | 44 | 202 | 0.0 | 0.0 | 0.00 | 0.00 | 0.00 | 99 | 1008.3 |
| 20260509110031 | 44 | 177 | 0.0 | 1.0 | 0.00 | 0.42 | 0.42 | 99 | 1008.1 |
| 20260509105529 | 44 | 193 | 1.0 | 2.0 | 0.00 | 0.42 | 0.42 | 99 | 1008.1 |
| 20260509105026 | 44 | 174 | 1.0 | 2.0 | 0.07 | 0.42 | 0.42 | 99 | 1007.9 |
| 20260509104523 | 44 | 180 | 1.0 | 1.0 | 0.07 | 0.42 | 0.42 | 99 | 1008.0 |
| 20260509104020 | 44 | 208 | 0.0 | 1.0 | 0.00 | 0.41 | 0.41 | 99 | 1007.9 |
| 20260509103518 | 44 | 159 | 0.0 | 0.0 | 0.00 | 0.41 | 0.41 | 99 | 1007.8 |
| 20260509103016 | 44 | 186 | 1.0 | 2.0 | 0.05 | 0.41 | 0.41 | 99 | 1008.0 |
| 20260509102513 | 44 | 133 | 2.0 | 2.0 | 0.05 | 0.41 | 0.41 | 99 | 1008.1 |
| 20260509102009 | 44 | 205 | 0.0 | 1.0 | 0.07 | 0.40 | 0.40 | 99 | 1008.0 |
| 20260509101506 | 44 | 129 | 1.0 | 2.0 | 0.07 | 0.40 | 0.40 | 99 | 1008.2 |
| 20260509101003 | 44 | 218 | 0.0 | 2.0 | 0.00 | 0.39 | 0.39 | 99 | 1008.3 |
| 20260509100500 | 44 | 97 | 1.0 | 2.0 | 0.05 | 0.39 | 0.39 | 99 | 1008.2 |
| 20260509095957 | 44 | 174 | 1.0 | 2.0 | 0.07 | 0.38 | 0.38 | 99 | 1008.1 |
| 20260509095453 | 44 | 208 | 0.0 | 1.0 | 0.07 | 0.38 | 0.38 | 99 | 1008.1 |
| 20260509094950 | 44 | 198 | 0.0 | 2.0 | 0.05 | 0.37 | 0.37 | 99 | 1008.3 |
| 20260509094447 | 44 | 190 | 0.0 | 2.0 | 0.12 | 0.37 | 0.37 | 99 | 1008.2 |
| 20260509093944 | 44 | 201 | 0.0 | 0.0 | 0.12 | 0.36 | 0.36 | 99 | 1008.0 |
| 20260509093442 | 44 | 214 | 0.0 | 0.0 | 0.12 | 0.35 | 0.35 | 99 | 1008.2 |
| 20260509092939 | 44 | 189 | 0.0 | 1.0 | 0.19 | 0.34 | 0.34 | 99 | 1008.1 |
| 20260509092437 | 44 | 208 | 0.0 | 1.0 | 0.12 | 0.33 | 0.33 | 99 | 1008.2 |
| 20260509091936 | 44 | 219 | 0.0 | 0.0 | 0.05 | 0.31 | 0.31 | 99 | 1008.1 |
| 20260509091432 | 44 | 202 | 0.0 | 0.0 | 0.05 | 0.31 | 0.31 | 99 | 1008.2 |
| 20260509090929 | 44 | 187 | 0.0 | 0.0 | 0.00 | 0.30 | 0.30 | 99 | 1008.1 |
| 20260509090426 | 44 | 194 | 0.0 | 0.0 | 0.14 | 0.30 | 0.30 | 99 | 1007.9 |
| 20260509085924 | 44 | 209 | 0.0 | 0.0 | 0.12 | 0.29 | 0.29 | 99 | 1008.0 |
| 20260509085421 | 44 | 201 | 0.0 | 1.0 | 0.12 | 0.28 | 0.28 | 99 | 1008.2 |
| 20260509084917 | 44 | 201 | 0.0 | 0.0 | 0.12 | 0.27 | 0.27 | 99 | 1008.2 |
| 20260509084414 | 44 | 242 | 0.0 | 0.0 | 0.05 | 0.26 | 0.26 | 99 | 1008.0 |
| 20260509083912 | 44 | 217 | 0.0 | 0.0 | 0.07 | 0.25 | 0.25 | 99 | 1008.4 |
| 20260509083409 | 44 | 167 | 0.0 | 0.0 | 0.12 | 0.25 | 0.25 | 99 | 1008.6 |
| 20260509082905 | 44 | 203 | 0.0 | 0.0 | 0.05 | 0.24 | 0.24 | 99 | 1008.6 |
| 20260509082402 | 44 | 236 | 0.0 | 1.0 | 0.07 | 0.23 | 0.23 | 99 | 1008.6 |
| 20260509081859 | 44 | 88 | 1.0 | 2.0 | 0.12 | 0.23 | 0.23 | 99 | 1008.7 |
| 20260509081356 | 44 | 138 | 0.0 | 1.0 | 0.12 | 0.22 | 0.22 | 99 | 1008.6 |
| 20260509080854 | 44 | 207 | 0.0 | 2.0 | 0.12 | 0.21 | 0.21 | 99 | 1008.6 |
| 20260509080352 | 44 | 201 | 0.0 | 2.0 | 0.12 | 0.20 | 0.20 | 99 | 1008.6 |
| 20260509075850 | 44 | 199 | 0.0 | 0.0 | 0.12 | 0.19 | 0.19 | 99 | 1008.3 |
| 20260509075346 | 44 | 200 | 0.0 | 2.0 | 0.12 | 0.18 | 0.18 | 99 | 1008.7 |
| 20260509074844 | 44 | 127 | 2.0 | 2.0 | 0.14 | 0.17 | 0.17 | 99 | 1008.6 |
| 20260509074341 | 44 | 221 | 0.0 | 0.0 | 0.07 | 0.16 | 0.16 | 99 | 1008.8 |
| 20260509073837 | 44 | 206 | 1.0 | 4.0 | 0.05 | 0.15 | 0.15 | 99 | 1008.8 |
| 20260509073334 | 44 | 207 | 0.0 | 0.0 | 0.12 | 0.15 | 0.15 | 99 | 1008.9 |
| 20260509072831 | 44 | 228 | 0.0 | 0.0 | 0.07 | 0.14 | 0.14 | 99 | 1009.0 |
| 20260509072327 | 44 | 217 | 0.0 | 0.0 | 0.05 | 0.13 | 0.13 | 99 | 1008.7 |
| 20260509071824 | 44 | 209 | 1.0 | 2.0 | 0.12 | 0.13 | 0.13 | 99 | 1008.8 |
| 20260509071321 | 44 | 223 | 0.0 | 0.0 | 0.12 | 0.12 | 0.12 | 99 | 1008.9 |
| 20260509070818 | 44 | 199 | 0.0 | 1.0 | 0.05 | 0.11 | 0.11 | 99 | 1009.1 |
| 20260509070315 | 44 | 184 | 0.0 | 1.0 | 0.07 | 0.10 | 0.10 | 99 | 1009.1 |
| 20260509065811 | 44 | 193 | 0.0 | 1.0 | 0.12 | 0.10 | 0.10 | 99 | 1009.0 |
| 20260509065307 | 44 | 196 | 0.0 | 0.0 | 0.07 | 0.08 | 0.08 | 99 | 1009.1 |
| 20260509064803 | 44 | 199 | 0.0 | 0.0 | 0.05 | 0.07 | 0.07 | 99 | 1009.1 |
| 20260509064301 | 44 | 195 | 0.0 | 0.0 | 0.12 | 0.07 | 0.07 | 99 | 1008.9 |
| 20260509063758 | 43 | 206 | 0.0 | 0.0 | 0.12 | 0.06 | 0.06 | 99 | 1009.1 |
| 20260509063254 | 43 | 215 | 0.0 | 0.0 | 0.05 | 0.05 | 0.05 | 99 | 1008.8 |
| 20260509062752 | 43 | 215 | 0.0 | 0.0 | 0.07 | 0.04 | 0.04 | 99 | 1008.7 |
| 20260509062249 | 43 | 215 | 0.0 | 0.0 | 0.07 | 0.04 | 0.04 | 99 | 1008.9 |
| 20260509061746 | 43 | 214 | 0.0 | 0.0 | 0.07 | 0.03 | 0.03 | 99 | 1009.0 |
| 20260509061244 | 43 | 213 | 0.0 | 0.0 | 0.07 | 0.03 | 0.03 | 99 | 1008.9 |
| 20260509060741 | 43 | 213 | 0.0 | 0.0 | 0.05 | 0.02 | 0.02 | 98 | 1008.9 |
| 20260509060237 | 43 | 213 | 0.0 | 0.0 | 0.05 | 0.02 | 0.02 | 98 | 1009.1 |
| 20260509055733 | 43 | 202 | 0.0 | 0.0 | 0.07 | 0.01 | 0.01 | 97 | 1009.0 |
| 20260509055229 | 43 | 201 | 0.0 | 0.0 | 0.07 | 0.01 | 0.01 | 97 | 1009.1 |
| 20260509054726 | 43 | 201 | 0.0 | 0.0 | 0.00 | 0.00 | 0.00 | 96 | 1009.2 |
| 20260509054223 | 43 | 200 | 0.0 | 0.0 | 0.00 | 0.00 | 0.00 | 96 | 1009.0 |
| 20260509053721 | 43 | 202 | 0.0 | 0.0 | 0.00 | 0.00 | 0.00 | 95 | 1009.2 |
| 20260509053218 | 43 | 202 | 0.0 | 0.0 | 0.00 | 0.00 | 0.00 | 95 | 1009.2 |
| 20260509052716 | 43 | 202 | 0.0 | 0.0 | 0.00 | 0.00 | 0.00 | 95 | 1009.3 |
| 20260509052213 | 43 | 202 | 0.0 | 0.0 | 0.00 | 0.00 | 0.00 | 95 | 1009.2 |
| 20260509051711 | 43 | 201 | 0.0 | 0.0 | 0.00 | 0.00 | 0.00 | 95 | 1008.9 |
| 20260509051208 | 43 | 200 | 0.0 | 0.0 | 0.00 | 0.00 | 0.00 | 94 | 1009.1 |
| 20260509050705 | 43 | 205 | 0.0 | 0.0 | 0.00 | 0.00 | 0.00 | 94 | 1009.3 |
| 20260509050201 | 43 | 172 | 0.0 | 0.0 | 0.00 | 0.00 | 0.00 | 94 | 1009.2 |
| 20260509045659 | 43 | 203 | 0.0 | 0.0 | 0.00 | 0.00 | 0.00 | 93 | 1009.4 |
| 20260509045155 | 43 | 204 | 0.0 | 0.0 | 0.00 | 0.00 | 0.00 | 93 | 1009.4 |
| 20260509044653 | 43 | 201 | 0.0 | 0.0 | 0.00 | 0.00 | 0.00 | 92 | 1009.4 |
| 20260509044150 | 43 | 207 | 0.0 | 0.0 | 0.00 | 0.00 | 0.00 | 92 | 1009.4 |
| 20260509043646 | 43 | 191 | 0.0 | 0.0 | 0.00 | 0.00 | 0.00 | 92 | 1009.4 |
| 20260509043142 | 43 | 201 | 0.0 | 0.0 | 0.00 | 0.00 | 0.00 | 92 | 1009.4 |
| 20260509042639 | 43 | 207 | 0.0 | 0.0 | 0.00 | 0.00 | 0.00 | 92 | 1009.4 |
| 20260509042135 | 42 | 207 | 0.0 | 0.0 | 0.00 | 0.00 | 0.00 | 92 | 1009.6 |
| 20260509041632 | 43 | 193 | 1.0 | 2.0 | 0.00 | 0.00 | 0.00 | 92 | 1009.5 |
| 20260509041129 | 42 | 208 | 0.0 | 0.0 | 0.00 | 0.00 | 0.00 | 92 | 1009.7 |
| 20260509040628 | 42 | 208 | 0.0 | 0.0 | 0.00 | 0.00 | 0.00 | 92 | 1009.7 |
| 20260509040124 | 42 | 208 | 0.0 | 0.0 | 0.00 | 0.00 | 0.00 | 92 | 1009.4 |
| 20260509035621 | 42 | 207 | 0.0 | 0.0 | 0.00 | 0.00 | 0.00 | 92 | 1009.5 |
| 20260509035117 | 42 | 190 | 0.0 | 0.0 | 0.00 | 0.00 | 0.00 | 92 | 1009.3 |
| 20260509034616 | 42 | 220 | 0.0 | 0.0 | 0.00 | 0.00 | 0.00 | 92 | 1009.3 |
| 20260509034112 | 42 | 220 | 0.0 | 0.0 | 0.00 | 0.00 | 0.00 | 92 | 1009.5 |
| 20260509033609 | 42 | 220 | 0.0 | 0.0 | 0.00 | 0.00 | 0.00 | 92 | 1009.5 |
| 20260509033106 | 42 | 220 | 0.0 | 0.0 | 0.00 | 0.00 | 0.00 | 92 | 1009.5 |
| 20260509032604 | 42 | 220 | 0.0 | 0.0 | 0.00 | 0.00 | 0.00 | 92 | 1009.4 |
| 20260509032100 | 42 | 220 | 0.0 | 0.0 | 0.00 | 0.00 | 0.00 | 92 | 1009.6 |
| 20260509031558 | 42 | 220 | 0.0 | 0.0 | 0.00 | 0.00 | 0.00 | 91 | 1009.7 |
| 20260509031055 | 42 | 221 | 0.0 | 0.0 | 0.00 | 0.00 | 0.00 | 91 | 1009.7 |
| 20260509030554 | 42 | 221 | 0.0 | 0.0 | 0.00 | 0.00 | 0.00 | 91 | 1009.7 |
| 20260509030050 | 42 | 221 | 0.0 | 0.0 | 0.00 | 0.00 | 0.00 | 91 | 1009.6 |
| 20260509025546 | 42 | 221 | 0.0 | 0.0 | 0.00 | 0.00 | 0.00 | 90 | 1009.6 |
| 20260509025042 | 42 | 221 | 0.0 | 0.0 | 0.00 | 0.00 | 0.00 | 90 | 1009.7 |
| 20260509024538 | 42 | 221 | 0.0 | 0.0 | 0.00 | 0.00 | 0.00 | 89 | 1009.5 |
| 20260509024034 | 42 | 221 | 0.0 | 0.0 | 0.00 | 0.00 | 0.00 | 89 | 1009.5 |
| 20260509023532 | 42 | 221 | 0.0 | 0.0 | 0.00 | 0.00 | 0.00 | 89 | 1009.8 |
| 20260509023028 | 42 | 221 | 0.0 | 0.0 | 0.00 | 0.00 | 0.00 | 89 | 1009.5 |
| 20260509022525 | 42 | 221 | 0.0 | 0.0 | 0.00 | 0.00 | 0.00 | 89 | 1009.6 |
| 20260509022023 | 42 | 221 | 0.0 | 0.0 | 0.00 | 0.00 | 0.00 | 87 | 1009.7 |
| 20260509021520 | 43 | 221 | 0.0 | 0.0 | 0.00 | 0.00 | 0.00 | 86 | 1009.7 |
| 20260509021017 | 42 | 221 | 0.0 | 0.0 | 0.00 | 0.00 | 0.00 | 86 | 1009.8 |
| 20260509020515 | 42 | 221 | 0.0 | 0.0 | 0.00 | 0.00 | 0.00 | 86 | 1009.7 |
| 20260509020012 | 42 | 221 | 0.0 | 0.0 | 0.00 | 0.00 | 0.00 | 86 | 1009.6 |
| 20260509015511 | 42 | 221 | 0.0 | 0.0 | 0.00 | 0.00 | 0.00 | 86 | 1009.5 |
| 20260509015008 | 43 | 221 | 0.0 | 0.0 | 0.00 | 0.00 | 0.00 | 86 | 1009.6 |
| 20260509014504 | 43 | 221 | 0.0 | 0.0 | 0.00 | 0.00 | 0.00 | 85 | 1009.6 |
| 20260509014000 | 43 | 221 | 0.0 | 0.0 | 0.00 | 0.00 | 0.00 | 83 | 1009.5 |
| 20260509013457 | 43 | 221 | 0.0 | 0.0 | 0.00 | 0.00 | 0.00 | 84 | 1009.6 |
| 20260509012953 | 43 | 221 | 0.0 | 0.0 | 0.00 | 0.00 | 0.00 | 84 | 1009.8 |
| 20260509012449 | 43 | 221 | 0.0 | 0.0 | 0.00 | 0.00 | 0.00 | 83 | 1009.8 |
| 20260509011946 | 43 | 221 | 0.0 | 0.0 | 0.00 | 0.00 | 0.00 | 82 | 1009.7 |
| 20260509011444 | 43 | 221 | 0.0 | 0.0 | 0.00 | 0.00 | 0.00 | 84 | 1009.5 |
| 20260509010942 | 42 | 221 | 0.0 | 0.0 | 0.00 | 0.00 | 0.00 | 83 | 1009.5 |
| 20260509010439 | 42 | 221 | 0.0 | 0.0 | 0.00 | 0.00 | 0.00 | 82 | 1009.4 |
| 20260509005936 | 43 | 221 | 0.0 | 0.0 | 0.00 | 0.00 | 0.00 | 81 | 1009.1 |
| 20260509005434 | 43 | 221 | 0.0 | 0.0 | 0.00 | 0.00 | 0.00 | 80 | 1009.0 |
| 20260509004934 | 43 | 221 | 0.0 | 0.0 | 0.00 | 0.00 | 0.00 | 80 | 1009.1 |
| 20260509004431 | 43 | 221 | 0.0 | 0.0 | 0.00 | 0.00 | 0.00 | 79 | 1009.0 |
| 20260509003929 | 43 | 222 | 0.0 | 0.0 | 0.00 | 0.00 | 0.00 | 78 | 1009.0 |
| 20260509003426 | 43 | 222 | 0.0 | 0.0 | 0.00 | 0.00 | 0.00 | 77 | 1009.0 |
| 20260509002923 | 43 | 224 | 0.0 | 0.0 | 0.00 | 0.00 | 0.00 | 76 | 1009.0 |
| 20260509002421 | 43 | 224 | 0.0 | 0.0 | 0.00 | 0.00 | 0.00 | 77 | 1008.9 |
| 20260509001918 | 43 | 224 | 0.0 | 0.0 | 0.00 | 0.00 | 0.00 | 78 | 1008.8 |
| 20260509001414 | 43 | 224 | 0.0 | 0.0 | 0.00 | 0.00 | 0.00 | 74 | 1008.9 |
| 20260509000911 | 43 | 224 | 0.0 | 0.0 | 0.00 | 0.00 | 0.00 | 74 | 1008.7 |
| 20260509000410 | 43 | 224 | 0.0 | 0.0 | 0.00 | 0.00 | 0.00 | 72 | 1008.8 |
| 20260508235904 | 44 | 224 | 0.0 | 0.0 | 0.00 | 0.00 | 0.00 | 71 | 1008.7 |
| 20260508235402 | 44 | 224 | 0.0 | 0.0 | 0.00 | 0.00 | 0.00 | 70 | 1008.7 |
| 20260508234859 | 44 | 224 | 0.0 | 0.0 | 0.00 | 0.00 | 0.00 | 70 | 1008.6 |
| 20260508234355 | 44 | 224 | 0.0 | 0.0 | 0.00 | 0.00 | 0.00 | 74 | 1008.3 |
| 20260508233854 | 45 | 224 | 0.0 | 0.0 | 0.00 | 0.00 | 0.00 | 73 | 1008.2 |
| 20260508233353 | 45 | 224 | 0.0 | 0.0 | 0.00 | 0.00 | 0.00 | 70 | 1008.0 |
| 20260508232849 | 46 | 224 | 0.0 | 0.0 | 0.00 | 0.00 | 0.00 | 69 | 1008.3 |
| 20260508232345 | 46 | 224 | 0.0 | 0.0 | 0.00 | 0.00 | 0.00 | 68 | 1008.1 |
| 20260508231844 | 47 | 224 | 0.0 | 0.0 | 0.00 | 0.00 | 0.00 | 66 | 1008.2 |
| 20260508231340 | 47 | 224 | 0.0 | 0.0 | 0.00 | 0.00 | 0.00 | 65 | 1008.1 |
| 20260508230837 | 48 | 224 | 0.0 | 0.0 | 0.00 | 0.00 | 0.00 | 65 | 1008.4 |
| 20260508230333 | 48 | 224 | 0.0 | 0.0 | 0.00 | 0.00 | 0.00 | 66 | 1008.4 |
| 20260508225832 | 48 | 224 | 0.0 | 0.0 | 0.00 | 0.00 | 0.00 | 62 | 1008.1 |
| 20260508225328 | 48 | 224 | 0.0 | 0.0 | 0.00 | 0.00 | 0.00 | 60 | 1008.4 |
| 20260508224826 | 48 | 209 | 0.0 | 0.0 | 0.00 | 0.00 | 0.00 | 57 | 1008.0 |
| 20260508224323 | 49 | 222 | 0.0 | 0.0 | 0.00 | 0.00 | 0.00 | 58 | 1008.3 |
| 20260508223820 | 49 | 224 | 0.0 | 2.0 | 0.00 | 0.00 | 0.00 | 55 | 1008.1 |
| 20260508223318 | 49 | 210 | 0.0 | 1.0 | 0.00 | 0.00 | 0.00 | 52 | 1007.9 |
| 20260508222815 | 49 | 248 | 0.0 | 4.0 | 0.00 | 0.00 | 0.00 | 54 | 1008.1 |
| 20260508222312 | 49 | 259 | 0.0 | 0.0 | 0.00 | 0.00 | 0.00 | 57 | 1008.1 |
| 20260508221809 | 49 | 224 | 0.0 | 0.0 | 0.00 | 0.00 | 0.00 | 56 | 1008.1 |
| 20260508221304 | 49 | 226 | 0.0 | 0.0 | 0.00 | 0.00 | 0.00 | 54 | 1008.1 |
| 20260508220801 | 50 | 266 | 1.0 | 1.0 | 0.00 | 0.00 | 0.00 | 53 | 1008.1 |
| 20260508220257 | 50 | 232 | 1.0 | 1.0 | 0.00 | 0.00 | 0.00 | 51 | 1008.0 |
| 20260508215754 | 51 | 248 | 1.0 | 6.0 | 0.00 | 0.00 | 0.00 | 51 | 1007.8 |
| 20260508215250 | 50 | 332 | 1.0 | 2.0 | 0.00 | 0.00 | 0.00 | 52 | 1008.1 |
| 20260508214748 | 50 | 252 | 0.0 | 2.0 | 0.00 | 0.00 | 0.00 | 52 | 1008.0 |
| 20260508214245 | 50 | 290 | 2.0 | 2.0 | 0.00 | 0.00 | 0.00 | 52 | 1008.2 |
| 20260508213741 | 50 | 220 | 1.0 | 2.0 | 0.00 | 0.00 | 0.00 | 52 | 1008.4 |
| 20260508213238 | 50 | 296 | 0.0 | 1.0 | 0.00 | 0.00 | 0.00 | 54 | 1008.2 |
| 20260508212735 | 50 | 220 | 0.0 | 0.0 | 0.00 | 0.00 | 0.00 | 52 | 1008.0 |
| 20260508212231 | 51 | 248 | 2.0 | 3.0 | 0.00 | 0.00 | 0.00 | 51 | 1008.1 |
| 20260508211727 | 51 | 213 | 0.0 | 2.0 | 0.00 | 0.00 | 0.00 | 51 | 1008.2 |
| 20260508211223 | 51 | 132 | 1.0 | 3.0 | 0.00 | 0.00 | 0.00 | 50 | 1008.1 |
| 20260508210720 | 51 | 313 | 0.0 | 4.0 | 0.00 | 0.00 | 0.00 | 52 | 1008.0 |
| 20260508210217 | 50 | 215 | 0.0 | 4.0 | 0.00 | 0.00 | 0.00 | 53 | 1008.0 |
| 20260508205714 | 50 | 233 | 1.0 | 4.0 | 0.00 | 0.00 | 0.00 | 53 | 1008.0 |
| 20260508205210 | 50 | 224 | 1.0 | 2.0 | 0.00 | 0.00 | 0.00 | 53 | 1008.2 |
| 20260508204707 | 50 | 237 | 0.0 | 0.0 | 0.00 | 0.00 | 0.00 | 53 | 1008.1 |
| 20260508204203 | 50 | 220 | 0.0 | 3.0 | 0.00 | 0.00 | 0.00 | 55 | 1008.0 |
| 20260508203659 | 50 | 239 | 2.0 | 2.0 | 0.00 | 0.00 | 0.00 | 53 | 1008.2 |
| 20260508203156 | 50 | 97 | 0.0 | 3.0 | 0.00 | 0.00 | 0.00 | 52 | 1008.3 |
| 20260508202652 | 51 | 285 | 2.0 | 3.0 | 0.00 | 0.00 | 0.00 | 52 | 1008.4 |
| 20260508202149 | 51 | 250 | 2.0 | 3.0 | 0.00 | 0.00 | 0.00 | 57 | 1008.2 |
| 20260508201646 | 51 | 274 | 1.0 | 3.0 | 0.00 | 0.00 | 0.00 | 53 | 1008.3 |
| 20260508201142 | 51 | 253 | 0.0 | 4.0 | 0.00 | 0.00 | 0.00 | 53 | 1008.4 |
| 20260508200639 | 50 | 343 | 2.0 | 3.0 | 0.00 | 0.00 | 0.00 | 53 | 1008.3 |
| 20260508200135 | 51 | 281 | 3.0 | 3.0 | 0.00 | 0.00 | 0.00 | 53 | 1008.4 |
| 20260508195632 | 50 | 223 | 1.0 | 6.0 | 0.00 | 0.00 | 0.00 | 54 | 1008.6 |
| 20260508195128 | 50 | 287 | 2.0 | 6.0 | 0.00 | 0.00 | 0.00 | 53 | 1008.7 |
| 20260508194625 | 49 | 323 | 1.0 | 6.0 | 0.00 | 0.00 | 0.00 | 58 | 1008.7 |
| 20260508194122 | 48 | 228 | 1.0 | 2.0 | 0.00 | 0.00 | 0.00 | 57 | 1008.7 |
| 20260508193619 | 49 | 291 | 1.0 | 6.0 | 0.00 | 0.00 | 0.00 | 57 | 1008.4 |
| 20260508193116 | 49 | 284 | 1.0 | 7.0 | 0.00 | 0.00 | 0.00 | 57 | 1008.9 |
| 20260508192612 | 50 | 234 | 1.0 | 3.0 | 0.00 | 0.00 | 0.00 | 55 | 1008.7 |
| 20260508192110 | 51 | 334 | 2.0 | 3.0 | 0.00 | 0.00 | 0.00 | 56 | 1008.4 |
| 20260508191606 | 50 | 305 | 2.0 | 4.0 | 0.00 | 0.00 | 0.00 | 60 | 1008.7 |
| 20260508191103 | 50 | 54 | 1.0 | 8.0 | 0.00 | 0.00 | 0.00 | 59 | 1008.8 |
| 20260508190600 | 49 | 216 | 2.0 | 2.0 | 0.00 | 0.00 | 0.00 | 58 | 1008.8 |
| 20260508190056 | 49 | 223 | 0.0 | 6.0 | 0.00 | 0.00 | 0.00 | 60 | 1009.0 |
| 20260508185554 | 50 | 281 | 2.0 | 3.0 | 0.00 | 0.00 | 0.00 | 58 | 1009.0 |
| 20260508185052 | 50 | 271 | 1.0 | 2.0 | 0.00 | 0.00 | 0.00 | 60 | 1008.9 |
| 20260508184549 | 49 | 214 | 2.0 | 6.0 | 0.00 | 0.00 | 0.00 | 60 | 1009.1 |
| 20260508184045 | 49 | 189 | 1.0 | 2.0 | 0.00 | 0.00 | 0.00 | 62 | 1008.9 |
| 20260508183542 | 48 | 248 | 1.0 | 4.0 | 0.00 | 0.00 | 0.00 | 64 | 1008.9 |
| 20260508183038 | 48 | 343 | 1.0 | 8.0 | 0.00 | 0.00 | 0.00 | 62 | 1009.1 |
| 20260508182534 | 49 | 240 | 2.0 | 4.0 | 0.00 | 0.00 | 0.00 | 63 | 1008.9 |
| 20260508182031 | 49 | 83 | 2.0 | 3.0 | 0.00 | 0.00 | 0.00 | 63 | 1009.0 |
| 20260508181526 | 48 | 274 | 2.0 | 3.0 | 0.00 | 0.00 | 0.00 | 63 | 1009.1 |
| 20260508181024 | 47 | 40 | 4.0 | 7.0 | 0.00 | 0.00 | 0.00 | 67 | 1009.0 |
| 20260508180521 | 47 | 295 | 2.0 | 4.0 | 0.00 | 0.00 | 0.00 | 67 | 1009.1 |
| 20260508180017 | 48 | 221 | 0.0 | 3.0 | 0.00 | 0.00 | 0.00 | 65 | 1008.9 |
| 20260508175514 | 48 | 293 | 3.0 | 7.0 | 0.00 | 0.00 | 0.00 | 65 | 1008.7 |
| 20260508175011 | 47 | 242 | 0.0 | 0.0 | 0.00 | 0.00 | 0.00 | 66 | 1008.6 |
| 20260508174508 | 48 | 256 | 1.0 | 3.0 | 0.00 | 0.00 | 0.00 | 68 | 1008.7 |
| 20260508174005 | 49 | 303 | 1.0 | 6.0 | 0.00 | 0.00 | 0.00 | 65 | 1008.4 |
| 20260508173502 | 47 | 270 | 1.0 | 3.0 | 0.00 | 0.00 | 0.00 | 70 | 1008.6 |
| 20260508172958 | 47 | 279 | 1.0 | 7.0 | 0.00 | 0.00 | 0.00 | 68 | 1008.8 |
| 20260508172455 | 47 | 221 | 0.0 | 4.0 | 0.00 | 0.00 | 0.00 | 70 | 1008.7 |
| 20260508171952 | 46 | 213 | 0.0 | 1.0 | 0.00 | 0.00 | 0.00 | 72 | 1008.9 |
| 20260508171449 | 46 | 251 | 0.0 | 3.0 | 0.00 | 0.00 | 0.00 | 71 | 1009.0 |
| 20260508170945 | 46 | 265 | 1.0 | 4.0 | 0.00 | 0.00 | 0.00 | 73 | 1008.8 |
| 20260508170442 | 46 | 238 | 0.0 | 2.0 | 0.00 | 0.00 | 0.00 | 70 | 1008.8 |
| 20260508165939 | 46 | 244 | 0.0 | 2.0 | 0.00 | 0.00 | 0.00 | 71 | 1008.8 |
| 20260508165437 | 47 | 214 | 1.0 | 4.0 | 0.00 | 0.00 | 0.00 | 70 | 1008.9 |
| 20260508164933 | 48 | 309 | 2.0 | 3.0 | 0.00 | 0.00 | 0.00 | 71 | 1008.8 |
| 20260508164430 | 47 | 172 | 1.0 | 4.0 | 0.00 | 0.00 | 0.00 | 73 | 1008.7 |
| 20260508163927 | 46 | 215 | 3.0 | 4.0 | 0.00 | 0.00 | 0.00 | 72 | 1009.0 |
| 20260508163425 | 47 | 263 | 2.0 | 4.0 | 0.00 | 0.00 | 0.00 | 70 | 1008.7 |
| 20260508162920 | 47 | 296 | 1.0 | 8.0 | 0.00 | 0.00 | 0.00 | 68 | 1008.7 |
| 20260508162418 | 47 | 67 | 1.0 | 3.0 | 0.00 | 0.00 | 0.00 | 74 | 1008.8 |
| 20260508161914 | 48 | 242 | 1.0 | 2.0 | 0.00 | 0.00 | 0.00 | 68 | 1008.2 |
| 20260508161412 | 46 | 15 | 1.0 | 4.0 | 0.00 | 0.00 | 0.00 | 72 | 1008.4 |
| 20260508160909 | 46 | 234 | 0.0 | 0.0 | 0.00 | 0.00 | 0.00 | 74 | 1008.4 |
| 20260508160408 | 46 | 256 | 0.0 | 2.0 | 0.00 | 0.00 | 0.00 | 74 | 1008.7 |
| 20260508155903 | 45 | 268 | 0.0 | 4.0 | 0.00 | 0.00 | 0.00 | 74 | 1008.7 |
| 20260508155401 | 44 | 196 | 0.0 | 4.0 | 0.00 | 0.00 | 0.00 | 78 | 1008.6 |
| 20260508154857 | 44 | 168 | 2.0 | 2.0 | 0.00 | 0.00 | 0.00 | 75 | 1008.8 |
| 20260508154355 | 44 | 200 | 0.0 | 2.0 | 0.00 | 0.00 | 0.00 | 76 | 1008.7 |
| 20260508153852 | 43 | 36 | 2.0 | 2.0 | 0.00 | 0.00 | 0.00 | 76 | 1008.9 |
| 20260508153349 | 43 | 318 | 4.0 | 6.0 | 0.00 | 0.00 | 0.00 | 76 | 1008.8 |
| 20260508152844 | 43 | 272 | 1.0 | 3.0 | 0.00 | 0.00 | 0.00 | 76 | 1008.8 |
| 20260508152341 | 43 | 215 | 1.0 | 1.0 | 0.00 | 0.00 | 0.00 | 79 | 1009.1 |
| 20260508151838 | 42 | 233 | 0.0 | 2.0 | 0.00 | 0.00 | 0.00 | 80 | 1009.0 |
| 20260508151335 | 42 | 354 | 0.0 | 1.0 | 0.00 | 0.00 | 0.00 | 81 | 1008.9 |
| 20260508150831 | 42 | 242 | 1.0 | 1.0 | 0.00 | 0.00 | 0.00 | 80 | 1008.9 |
| 20260508150328 | 42 | 43 | 0.0 | 2.0 | 0.00 | 0.00 | 0.00 | 78 | 1009.0 |
| 20260508145824 | 42 | 347 | 1.0 | 2.0 | 0.00 | 0.00 | 0.00 | 79 | 1009.0 |
| 20260508145321 | 42 | 160 | 1.0 | 2.0 | 0.00 | 0.00 | 0.00 | 80 | 1008.9 |
| 20260508144817 | 43 | 206 | 0.0 | 1.0 | 0.00 | 0.00 | 0.00 | 80 | 1009.1 |
| 20260508144315 | 42 | 197 | 0.0 | 1.0 | 0.00 | 0.00 | 0.00 | 78 | 1008.9 |
| 20260508143813 | 42 | 148 | 1.0 | 1.0 | 0.00 | 0.00 | 0.00 | 80 | 1008.9 |
| 20260508143310 | 42 | 289 | 2.0 | 2.0 | 0.00 | 0.00 | 0.00 | 78 | 1009.2 |
| 20260508142806 | 42 | 238 | 0.0 | 2.0 | 0.00 | 0.00 | 0.00 | 79 | 1009.0 |
| 20260508142306 | 42 | 283 | 1.0 | 2.0 | 0.00 | 0.00 | 0.00 | 79 | 1009.0 |
| 20260508141759 | 42 | 183 | 0.0 | 1.0 | 0.00 | 0.00 | 0.00 | 77 | 1008.6 |
| 20260508141257 | 42 | 191 | 2.0 | 2.0 | 0.00 | 0.00 | 0.00 | 78 | 1008.6 |
| 20260508140754 | 43 | 243 | 0.0 | 3.0 | 0.00 | 0.00 | 0.00 | 76 | 1008.3 |
| 20260508140251 | 44 | 177 | 2.0 | 2.0 | 0.00 | 0.00 | 0.00 | 74 | 1008.4 |
| 20260508135747 | 44 | 197 | 0.0 | 1.0 | 0.00 | 0.00 | 0.00 | 74 | 1008.4 |
| 20260508135243 | 44 | 217 | 0.0 | 2.0 | 0.00 | 0.00 | 0.00 | 74 | 1008.3 |
| 20260508134738 | 43 | 237 | 1.0 | 1.0 | 0.00 | 0.00 | 0.00 | 78 | 1008.3 |
| 20260508134236 | 43 | 225 | 0.0 | 2.0 | 0.00 | 0.00 | 0.00 | 77 | 1008.3 |
| 20260508133732 | 43 | 35 | 0.0 | 1.0 | 0.00 | 0.00 | 0.00 | 75 | 1008.6 |
| 20260508133230 | 44 | 261 | 0.0 | 0.0 | 0.00 | 0.00 | 0.00 | 75 | 1008.3 |
| 20260508132728 | 45 | 265 | 1.0 | 3.0 | 0.00 | 0.00 | 0.00 | 71 | 1008.4 |
| 20260508132225 | 45 | 303 | 0.0 | 1.0 | 0.00 | 0.00 | 0.00 | 76 | 1008.4 |
| 20260508131721 | 45 | 226 | 1.0 | 1.0 | 0.00 | 0.00 | 0.00 | 73 | 1008.4 |